createdAt,value
2022-12-06T00:01:29.856Z,67.77
2022-12-06T00:04:03.140Z,67.68
2022-12-06T00:06:33.225Z,67.40
2022-12-06T00:09:01.147Z,67.70
2022-12-06T00:11:32.003Z,67.63
2022-12-06T00:14:03.379Z,67.33
2022-12-06T00:16:31.082Z,67.74
2022-12-06T00:18:59.213Z,67.48
2022-12-06T00:21:32.496Z,67.74
2022-12-06T00:24:12.675Z,67.93
2022-12-06T00:26:43.666Z,67.73
2022-12-06T00:29:18.869Z,67.58
2022-12-06T00:31:46.446Z,67.51
2022-12-06T00:34:13.478Z,67.75
2022-12-06T00:36:42.067Z,67.85
2022-12-06T00:39:17.361Z,67.85
2022-12-06T00:41:44.807Z,67.95
2022-12-06T00:44:12.229Z,67.54
2022-12-06T00:46:39.761Z,67.57
2022-12-06T00:49:08.447Z,67.43
2022-12-06T00:51:36.572Z,67.92
2022-12-06T00:54:03.781Z,67.77
2022-12-06T00:56:31.487Z,67.75
2022-12-06T00:58:58.484Z,67.56
2022-12-06T01:01:31.486Z,67.63
2022-12-06T01:04:00.963Z,67.79
2022-12-06T01:06:34.081Z,67.70
2022-12-06T01:09:06.371Z,67.84
2022-12-06T01:11:33.721Z,67.69
2022-12-06T01:14:00.586Z,67.54
2022-12-06T01:16:30.482Z,67.72
2022-12-06T01:19:01.372Z,67.70
2022-12-06T01:21:29.468Z,67.83
2022-12-06T01:23:57.074Z,67.68
2022-12-06T01:26:33.356Z,67.70
2022-12-06T01:29:01.216Z,67.40
2022-12-06T01:31:35.433Z,67.66
2022-12-06T01:34:05.794Z,67.73
2022-12-06T01:36:32.764Z,67.68
2022-12-06T01:39:00.987Z,67.19
2022-12-06T01:41:28.716Z,67.43
2022-12-06T01:43:56.784Z,67.64
2022-12-06T01:46:36.463Z,67.72
2022-12-06T01:49:31.092Z,67.40
2022-12-06T01:52:07.953Z,67.40
2022-12-06T01:54:35.184Z,67.57
2022-12-06T01:57:04.983Z,67.28
2022-12-06T01:59:31.835Z,67.36
2022-12-06T02:01:59.006Z,67.76
2022-12-06T02:04:27.100Z,67.40
2022-12-06T02:06:55.539Z,67.60
2022-12-06T02:09:23.309Z,67.62
2022-12-06T02:11:50.136Z,67.42
2022-12-06T02:14:23.513Z,67.67
2022-12-06T02:17:26.116Z,67.36
2022-12-06T02:20:00.850Z,67.71
2022-12-06T02:23:09.955Z,67.54
2022-12-06T02:26:25.463Z,67.51
2022-12-06T02:29:50.533Z,67.89
2022-12-06T02:32:55.431Z,67.62
2022-12-06T02:36:00.108Z,67.85
2022-12-06T02:38:45.813Z,67.99
2022-12-06T02:41:27.598Z,67.59
2022-12-06T02:44:00.329Z,67.71
2022-12-06T02:46:33.047Z,67.55
2022-12-06T02:49:03.084Z,67.84
2022-12-06T02:51:32.842Z,67.53
2022-12-06T02:54:03.212Z,67.40
2022-12-06T02:56:32.793Z,67.37
2022-12-06T02:58:59.824Z,67.70
2022-12-06T03:01:34.363Z,67.63
2022-12-06T03:04:47.400Z,67.85
2022-12-06T03:07:40.044Z,67.48
2022-12-06T03:10:20.979Z,67.96
2022-12-06T03:13:11.909Z,67.42
2022-12-06T03:16:07.342Z,67.42
2022-12-06T03:18:50.341Z,67.68
2022-12-06T03:21:53.357Z,67.65
2022-12-06T03:24:22.578Z,67.55
2022-12-06T03:26:51.466Z,67.97
2022-12-06T03:29:21.979Z,67.34
2022-12-06T03:31:49.844Z,67.65
2022-12-06T03:34:31.676Z,67.75
2022-12-06T03:36:59.456Z,67.41
2022-12-06T03:39:36.958Z,67.54
2022-12-06T03:42:04.360Z,67.52
2022-12-06T03:44:31.287Z,67.19
2022-12-06T03:47:30.208Z,67.15
2022-12-06T03:50:05.448Z,67.43
2022-12-06T03:52:33.615Z,67.30
2022-12-06T03:55:00.435Z,67.55
2022-12-06T03:57:27.438Z,67.50
2022-12-06T03:59:54.219Z,67.28
2022-12-06T04:02:21.009Z,67.82
2022-12-06T04:04:47.753Z,67.47
2022-12-06T04:07:14.771Z,67.69
2022-12-06T04:09:56.036Z,67.05
2022-12-06T04:12:42.677Z,67.47
2022-12-06T04:15:10.559Z,67.35
2022-12-06T04:18:00.780Z,67.55
2022-12-06T04:20:29.322Z,67.51
2022-12-06T04:23:05.408Z,67.28
2022-12-06T04:25:36.524Z,67.52
2022-12-06T04:28:22.643Z,67.45
2022-12-06T04:31:07.895Z,67.69
2022-12-06T04:33:53.018Z,67.44
2022-12-06T04:36:38.115Z,67.58
2022-12-06T04:39:05.715Z,67.64
2022-12-06T04:41:50.788Z,67.91
2022-12-06T04:44:17.581Z,68.01
2022-12-06T04:46:44.452Z,67.81
2022-12-06T04:49:11.473Z,67.69
2022-12-06T04:51:38.252Z,67.96
2022-12-06T04:54:05.566Z,67.61
2022-12-06T04:56:32.320Z,68.02
2022-12-06T04:58:59.219Z,67.74
2022-12-06T05:01:25.974Z,67.91
2022-12-06T05:03:52.763Z,67.56
2022-12-06T05:06:19.613Z,68.17
2022-12-06T05:08:46.380Z,67.56
2022-12-06T05:11:13.157Z,67.77
2022-12-06T05:13:39.920Z,67.74
2022-12-06T05:16:09.538Z,68.11
2022-12-06T05:18:36.456Z,68.18
2022-12-06T05:21:10.908Z,68.26
2022-12-06T05:23:37.786Z,67.87
2022-12-06T05:26:10.234Z,67.91
2022-12-06T05:28:37.155Z,68.08
2022-12-06T05:31:04.536Z,67.94
2022-12-06T05:33:31.693Z,68.18
2022-12-06T05:35:58.913Z,67.81
2022-12-06T05:38:25.822Z,68.16
2022-12-06T05:40:52.652Z,68.08
2022-12-06T05:43:19.430Z,67.84
2022-12-06T05:45:46.210Z,68.17
2022-12-06T05:48:13.061Z,67.88
2022-12-06T05:50:40.206Z,68.38
2022-12-06T05:53:07.208Z,68.22
2022-12-06T05:55:33.992Z,68.24
2022-12-06T05:58:00.776Z,68.27
2022-12-06T06:00:27.535Z,68.38
2022-12-06T06:02:54.574Z,68.25
2022-12-06T06:05:21.552Z,67.96
2022-12-06T06:07:48.392Z,68.02
2022-12-06T06:10:16.055Z,68.35
2022-12-06T06:12:44.596Z,68.35
2022-12-06T06:15:13.250Z,68.38
2022-12-06T06:17:40.397Z,68.03
2022-12-06T06:20:08.888Z,68.36
2022-12-06T06:22:38.168Z,68.05
2022-12-06T06:25:06.444Z,68.23
2022-12-06T06:27:37.620Z,68.51
2022-12-06T06:30:08.391Z,68.14
2022-12-06T06:32:35.608Z,68.24
2022-12-06T06:35:03.207Z,68.55
2022-12-06T06:37:29.980Z,68.39
2022-12-06T06:39:56.961Z,68.64
2022-12-06T06:42:23.831Z,68.31
2022-12-06T06:44:51.779Z,68.62
2022-12-06T06:47:18.570Z,68.38
2022-12-06T06:49:45.311Z,68.36
2022-12-06T06:52:12.110Z,68.48
2022-12-06T06:54:38.860Z,68.55
2022-12-06T06:57:05.925Z,68.90
2022-12-06T06:59:32.733Z,68.65
2022-12-06T07:01:59.657Z,68.83
2022-12-06T07:04:26.453Z,68.82
2022-12-06T07:06:53.240Z,68.59
2022-12-06T07:09:19.991Z,68.88
2022-12-06T07:11:46.723Z,68.97
2022-12-06T07:14:13.491Z,69.03
2022-12-06T07:16:40.271Z,68.76
2022-12-06T07:19:09.168Z,68.72
2022-12-06T07:21:36.209Z,68.99
2022-12-06T07:24:02.966Z,68.71
2022-12-06T07:26:29.753Z,69.06
2022-12-06T07:28:57.781Z,68.75
2022-12-06T07:31:28.636Z,68.80
2022-12-06T07:34:01.269Z,69.03
2022-12-06T07:36:31.287Z,69.14
2022-12-06T07:38:59.452Z,68.89
2022-12-06T07:41:47.233Z,69.15
2022-12-06T07:44:35.130Z,69.12
2022-12-06T07:47:02.391Z,69.14
2022-12-06T07:49:29.831Z,69.02
2022-12-06T07:51:57.436Z,69.36
2022-12-06T07:54:24.880Z,69.18
2022-12-06T07:56:51.802Z,69.34
2022-12-06T07:59:18.643Z,69.11
2022-12-06T08:01:45.545Z,69.40
2022-12-06T08:04:12.620Z,69.25
2022-12-06T08:06:39.730Z,69.49
2022-12-06T08:09:07.357Z,69.44
2022-12-06T08:11:34.871Z,69.31
2022-12-06T08:14:01.987Z,69.25
2022-12-06T08:16:28.752Z,69.29
2022-12-06T08:18:56.233Z,69.48
2022-12-06T08:21:26.000Z,69.13
2022-12-06T08:23:54.723Z,69.36
2022-12-06T08:26:23.882Z,69.69
2022-12-06T08:28:50.681Z,69.41
2022-12-06T08:31:23.946Z,69.36
2022-12-06T08:33:50.871Z,69.48
2022-12-06T08:36:21.701Z,69.55
2022-12-06T08:38:48.672Z,69.69
2022-12-06T08:41:34.453Z,69.62
2022-12-06T08:44:02.698Z,69.85
2022-12-06T08:46:31.655Z,69.67
2022-12-06T08:48:59.056Z,69.75
2022-12-06T08:51:25.981Z,69.83
2022-12-06T08:53:53.856Z,69.69
2022-12-06T08:56:21.044Z,69.94
2022-12-06T08:58:48.433Z,69.49
2022-12-06T09:01:18.731Z,69.65
2022-12-06T09:03:45.613Z,69.55
2022-12-06T09:06:12.437Z,69.74
2022-12-06T09:08:40.381Z,69.59
2022-12-06T09:11:08.475Z,69.88
2022-12-06T09:13:37.707Z,69.77
2022-12-06T09:16:12.276Z,69.73
2022-12-06T09:18:39.193Z,69.80
2022-12-06T09:21:12.213Z,69.81
2022-12-06T09:23:39.402Z,69.82
2022-12-06T09:26:07.336Z,69.86
2022-12-06T09:28:41.235Z,69.92
2022-12-06T09:31:09.454Z,69.75
2022-12-06T09:33:36.556Z,69.63
2022-12-06T09:36:14.841Z,69.72
2022-12-06T09:38:44.208Z,69.73
2022-12-06T09:41:56.914Z,69.71
2022-12-06T09:44:52.944Z,69.96
2022-12-06T09:47:40.989Z,70.05
2022-12-06T09:50:31.711Z,70.02
2022-12-06T09:53:50.302Z,69.90
2022-12-06T09:56:47.045Z,70.08
2022-12-06T10:00:06.092Z,70.02
2022-12-06T10:02:57.555Z,70.10
2022-12-06T10:05:55.290Z,70.04
2022-12-06T10:08:36.594Z,70.10
2022-12-06T10:11:40.984Z,70.30
2022-12-06T10:14:13.360Z,70.11
2022-12-06T10:17:03.479Z,70.34
2022-12-06T10:20:15.312Z,70.29
2022-12-06T10:23:29.454Z,70.21
2022-12-06T10:26:17.061Z,70.05
2022-12-06T10:28:55.778Z,70.15
2022-12-06T10:31:53.179Z,70.28
2022-12-06T10:34:57.205Z,70.28
2022-12-06T10:38:05.451Z,70.18
2022-12-06T10:41:06.628Z,70.13
2022-12-06T10:43:47.924Z,70.23
2022-12-06T10:46:52.495Z,70.25
2022-12-06T10:49:44.543Z,70.23
2022-12-06T10:52:31.780Z,70.17
2022-12-06T10:55:16.624Z,70.53
2022-12-06T10:58:27.469Z,70.16
2022-12-06T11:01:00.274Z,70.07
2022-12-06T11:04:02.141Z,70.08
2022-12-06T11:06:37.530Z,70.09
2022-12-06T11:09:19.320Z,70.15
2022-12-06T11:11:46.484Z,70.09
2022-12-06T11:14:43.373Z,70.06
2022-12-06T11:17:28.151Z,70.06
2022-12-06T11:20:34.505Z,69.93
2022-12-06T11:23:29.368Z,70.01
2022-12-06T11:26:20.909Z,70.33
2022-12-06T11:29:06.035Z,70.22
2022-12-06T11:31:38.235Z,70.25
2022-12-06T11:34:14.931Z,70.21
2022-12-06T11:36:42.119Z,70.29
2022-12-06T11:39:12.673Z,70.51
2022-12-06T11:41:39.607Z,70.13
2022-12-06T11:44:06.759Z,70.19
2022-12-06T11:46:33.617Z,69.56
2022-12-06T11:49:15.886Z,69.85
2022-12-06T11:51:42.647Z,69.82
2022-12-06T11:54:28.373Z,69.75
2022-12-06T11:57:00.134Z,69.77
2022-12-06T11:59:31.916Z,69.83
2022-12-06T12:02:02.829Z,69.90
2022-12-06T12:04:37.177Z,69.66
2022-12-06T12:07:09.949Z,69.93
2022-12-06T12:09:57.132Z,69.77
2022-12-06T12:12:48.392Z,69.84
2022-12-06T12:15:18.185Z,69.82
2022-12-06T12:17:53.089Z,69.66
2022-12-06T12:20:26.532Z,69.56
2022-12-06T12:23:23.990Z,70.12
2022-12-06T12:26:19.900Z,69.85
2022-12-06T12:29:05.809Z,70.01
2022-12-06T12:31:32.797Z,70.09
2022-12-06T12:34:23.809Z,69.83
2022-12-06T12:37:00.880Z,69.79
2022-12-06T12:39:44.393Z,69.88
2022-12-06T12:42:34.629Z,69.92
2022-12-06T12:45:04.645Z,69.88
2022-12-06T12:47:32.836Z,69.80
2022-12-06T12:50:27.322Z,69.97
2022-12-06T12:52:54.566Z,69.94
2022-12-06T12:55:27.045Z,69.81
2022-12-06T12:57:57.256Z,69.82
2022-12-06T13:00:29.587Z,69.48
2022-12-06T13:03:34.450Z,69.71
2022-12-06T13:05:58.620Z,69.76
2022-12-06T13:08:33.908Z,69.48
2022-12-06T13:11:04.276Z,69.58
2022-12-06T13:13:54.269Z,69.55
2022-12-06T13:16:34.233Z,69.61
2022-12-06T13:19:02.493Z,69.51
2022-12-06T13:21:39.432Z,69.53
2022-12-06T13:24:12.575Z,69.58
2022-12-06T13:26:56.495Z,69.49
2022-12-06T13:29:37.005Z,69.56
2022-12-06T13:32:19.961Z,69.36
2022-12-06T13:34:55.813Z,69.52
2022-12-06T13:37:47.025Z,69.61
2022-12-06T13:40:34.832Z,69.67
2022-12-06T13:43:05.569Z,69.62
2022-12-06T13:45:41.824Z,69.52
2022-12-06T13:48:26.846Z,69.62
2022-12-06T13:50:58.117Z,69.73
2022-12-06T13:53:27.863Z,69.71
2022-12-06T13:56:01.927Z,69.66
2022-12-06T13:58:28.611Z,69.53
2022-12-06T14:00:57.144Z,69.51
2022-12-06T14:03:26.789Z,69.58
2022-12-06T14:06:15.681Z,69.52
2022-12-06T14:08:52.336Z,69.29
2022-12-06T14:11:25.819Z,69.14
2022-12-06T14:13:55.532Z,69.46
2022-12-06T14:16:25.986Z,69.45
2022-12-06T14:18:52.819Z,69.38
2022-12-06T14:21:26.594Z,69.43
2022-12-06T14:23:53.393Z,69.07
2022-12-06T14:26:28.736Z,69.20
2022-12-06T14:29:01.620Z,69.36
2022-12-06T14:31:34.560Z,69.30
2022-12-06T14:34:01.517Z,69.44
2022-12-06T14:36:33.661Z,69.27
2022-12-06T14:39:12.480Z,69.17
2022-12-06T14:41:58.232Z,69.36
2022-12-06T14:44:32.502Z,69.59
2022-12-06T14:47:00.257Z,69.57
2022-12-06T14:49:47.125Z,69.34
2022-12-06T14:52:25.738Z,69.49
2022-12-06T14:55:14.624Z,69.37
2022-12-06T14:57:57.178Z,69.53
2022-12-06T15:00:35.042Z,69.16
2022-12-06T15:03:08.278Z,69.41
2022-12-06T15:05:49.594Z,69.44
2022-12-06T15:08:28.510Z,69.42
2022-12-06T15:11:33.588Z,69.42
2022-12-06T15:14:15.838Z,69.59
2022-12-06T15:17:06.364Z,69.47
2022-12-06T15:19:36.815Z,69.63
2022-12-06T15:22:04.334Z,69.46
2022-12-06T15:24:32.061Z,69.44
2022-12-06T15:26:58.808Z,69.46
2022-12-06T15:29:25.651Z,69.22
2022-12-06T15:31:54.643Z,69.24
2022-12-06T15:34:31.060Z,69.32
2022-12-06T15:37:30.176Z,69.12
2022-12-06T15:39:48.315Z,69.45
2022-12-06T15:42:22.363Z,69.34
2022-12-06T15:44:50.859Z,69.05
2022-12-06T15:47:19.660Z,69.45
2022-12-06T15:49:47.193Z,69.28
2022-12-06T15:52:22.851Z,69.26
2022-12-06T15:54:49.669Z,69.22
2022-12-06T15:57:16.452Z,69.21
2022-12-06T15:59:43.242Z,69.09
2022-12-06T16:02:18.049Z,69.17
2022-12-06T16:04:48.220Z,69.19
2022-12-06T16:07:18.434Z,69.14
2022-12-06T16:09:45.630Z,69.14
2022-12-06T16:12:12.492Z,69.01
2022-12-06T16:14:39.282Z,69.21
2022-12-06T16:17:06.092Z,69.04
2022-12-06T16:19:51.379Z,69.00
2022-12-06T16:22:18.157Z,69.15
2022-12-06T16:24:49.461Z,68.98
2022-12-06T16:27:19.211Z,68.96
2022-12-06T16:29:45.968Z,69.07
2022-12-06T16:32:12.885Z,68.91
2022-12-06T16:34:39.644Z,68.95
2022-12-06T16:37:06.824Z,69.10
2022-12-06T16:39:35.261Z,68.83
2022-12-06T16:42:03.835Z,68.84
2022-12-06T16:44:30.949Z,68.83
2022-12-06T16:46:57.895Z,68.80
2022-12-06T16:52:15.602Z,68.82
2022-12-06T16:54:42.706Z,68.79
2022-12-06T16:57:12.510Z,68.66
2022-12-06T16:59:40.258Z,68.61
2022-12-06T17:02:29.646Z,68.44
2022-12-06T17:04:58.880Z,68.62
2022-12-06T17:07:25.903Z,68.76
2022-12-06T17:09:53.682Z,68.83
2022-12-06T17:12:20.788Z,68.56
2022-12-06T17:14:47.564Z,68.63
2022-12-06T17:17:17.770Z,68.53
2022-12-06T17:19:44.600Z,68.70
2022-12-06T17:22:12.890Z,68.72
2022-12-06T17:24:39.969Z,68.55
2022-12-06T17:27:08.924Z,68.39
2022-12-06T17:29:36.316Z,68.82
2022-12-06T17:32:03.108Z,68.88
2022-12-06T17:34:29.881Z,68.63
2022-12-06T17:36:57.831Z,68.66
2022-12-06T17:39:25.075Z,68.71
2022-12-06T17:42:10.304Z,68.73
2022-12-06T17:44:39.875Z,68.59
2022-12-06T17:47:06.923Z,68.77
2022-12-06T17:49:35.972Z,69.01
2022-12-06T17:52:02.781Z,68.71
2022-12-06T17:54:29.528Z,68.70
2022-12-06T17:56:56.456Z,68.78
2022-12-06T17:59:30.352Z,68.75
2022-12-06T18:02:17.871Z,68.80
2022-12-06T18:04:47.128Z,68.75
2022-12-06T18:07:14.588Z,68.96
2022-12-06T18:09:41.492Z,68.80
2022-12-06T18:12:10.562Z,68.66
2022-12-06T18:14:37.493Z,68.48
2022-12-06T18:17:04.438Z,68.66
2022-12-06T18:19:31.871Z,68.69
2022-12-06T18:21:58.722Z,68.66
2022-12-06T18:24:30.612Z,68.65
2022-12-06T18:27:00.248Z,68.68
2022-12-06T18:29:27.102Z,68.66
2022-12-06T18:31:54.070Z,68.68
2022-12-06T18:34:20.962Z,68.95
2022-12-06T18:36:48.186Z,68.89
2022-12-06T18:39:24.052Z,68.68
2022-12-06T18:41:53.072Z,68.73
2022-12-06T18:44:19.821Z,68.77
2022-12-06T18:46:46.696Z,68.80
2022-12-06T18:49:14.401Z,68.75
2022-12-06T18:51:41.598Z,68.51
2022-12-06T18:54:08.977Z,68.32
2022-12-06T18:56:36.287Z,68.66
2022-12-06T18:59:07.478Z,68.44
2022-12-06T19:01:37.693Z,68.34
2022-12-06T19:04:07.483Z,68.54
2022-12-06T19:06:37.344Z,68.30
2022-12-06T19:09:10.466Z,68.22
2022-12-06T19:11:39.571Z,68.42
2022-12-06T19:14:07.302Z,68.22
2022-12-06T19:16:44.159Z,68.15
2022-12-06T19:19:16.977Z,67.99
2022-12-06T19:21:46.557Z,67.89
2022-12-06T19:24:17.410Z,68.29
2022-12-06T19:26:44.708Z,68.09
2022-12-06T19:29:12.725Z,68.05
2022-12-06T19:31:39.518Z,67.98
2022-12-06T19:34:06.299Z,67.71
2022-12-06T19:36:33.574Z,67.78
2022-12-06T19:39:06.291Z,67.47
2022-12-06T19:41:52.680Z,66.75
2022-12-06T19:44:19.529Z,67.50
2022-12-06T19:46:48.090Z,67.20
2022-12-06T19:49:17.935Z,67.19
2022-12-06T19:51:46.388Z,67.03
2022-12-06T19:54:19.612Z,67.11
2022-12-06T19:56:48.444Z,67.19
2022-12-06T19:59:15.411Z,67.36
2022-12-06T20:01:45.241Z,67.00
2022-12-06T20:04:18.228Z,67.26
2022-12-06T20:06:45.734Z,67.14
2022-12-06T20:09:14.405Z,67.14
2022-12-06T20:12:01.744Z,66.82
2022-12-06T20:14:33.721Z,67.19
2022-12-06T20:17:01.964Z,67.40
2022-12-06T20:19:28.983Z,67.24
2022-12-06T20:21:55.782Z,67.26
2022-12-06T20:24:23.552Z,67.29
2022-12-06T20:26:53.232Z,67.35
2022-12-06T20:29:21.096Z,67.36
2022-12-06T20:31:51.277Z,67.19
2022-12-06T20:34:18.841Z,66.90
2022-12-06T20:36:45.782Z,67.32
2022-12-06T20:39:25.218Z,67.68
2022-12-06T20:41:52.721Z,67.66
2022-12-06T20:44:21.005Z,67.66
2022-12-06T20:46:51.267Z,67.51
2022-12-06T20:49:18.151Z,67.50
2022-12-06T20:51:51.117Z,67.40
2022-12-06T20:54:19.719Z,66.92
2022-12-06T20:56:47.054Z,66.87
2022-12-06T20:59:14.019Z,66.88
2022-12-06T21:01:42.073Z,67.05
2022-12-06T21:04:13.435Z,67.24
2022-12-06T21:06:40.993Z,67.00
2022-12-06T21:09:07.948Z,66.83
2022-12-06T21:11:34.800Z,67.13
2022-12-06T21:14:01.596Z,67.05
2022-12-06T21:16:31.470Z,67.27
2022-12-06T21:19:02.156Z,67.14
2022-12-06T21:21:35.136Z,67.16
2022-12-06T21:24:05.009Z,67.29
2022-12-06T21:26:32.343Z,67.46
2022-12-06T21:28:59.291Z,67.91
2022-12-06T21:31:32.506Z,67.70
2022-12-06T21:33:59.563Z,67.63
2022-12-06T21:36:26.490Z,68.07
2022-12-06T21:38:54.246Z,67.33
2022-12-06T21:41:22.004Z,67.76
2022-12-06T21:43:49.037Z,67.51
2022-12-06T21:46:22.529Z,67.62
2022-12-06T21:48:51.490Z,67.79
2022-12-06T21:51:19.278Z,67.50
2022-12-06T21:53:46.069Z,67.61
2022-12-06T21:56:21.952Z,67.46
2022-12-06T21:58:49.380Z,67.96
2022-12-06T22:01:27.865Z,67.55
2022-12-06T22:03:58.077Z,67.66
2022-12-06T22:06:25.541Z,67.69
2022-12-06T22:09:02.123Z,67.94
2022-12-06T22:11:30.323Z,68.37
2022-12-06T22:13:59.073Z,67.97
2022-12-06T22:16:26.580Z,68.09
2022-12-06T22:18:55.098Z,68.02
2022-12-06T22:21:26.777Z,67.92
2022-12-06T22:23:55.304Z,67.90
2022-12-06T22:26:23.173Z,68.15
2022-12-06T22:28:50.625Z,68.11
2022-12-06T22:31:24.498Z,67.90
2022-12-06T22:33:52.473Z,68.07
2022-12-06T22:36:21.083Z,68.32
2022-12-06T22:38:53.515Z,68.00
2022-12-06T22:41:21.267Z,68.52
2022-12-06T22:43:54.247Z,68.51
2022-12-06T22:46:21.743Z,68.52
2022-12-06T22:48:49.274Z,68.35
2022-12-06T22:51:23.479Z,68.34
2022-12-06T22:53:59.730Z,68.49
2022-12-06T22:56:27.308Z,68.29
2022-12-06T22:58:56.538Z,68.63
2022-12-06T23:01:28.226Z,68.06
2022-12-06T23:03:55.945Z,68.11
2022-12-06T23:06:25.357Z,68.24
2022-12-06T23:08:53.338Z,68.40
2022-12-06T23:11:30.228Z,68.57
2022-12-06T23:13:58.216Z,68.69
2022-12-06T23:16:29.690Z,68.69
2022-12-06T23:18:56.785Z,68.29
2022-12-06T23:21:35.946Z,68.48
2022-12-06T23:24:07.313Z,68.46
2022-12-06T23:26:39.202Z,68.57
2022-12-06T23:29:06.576Z,68.65
2022-12-06T23:31:36.434Z,68.80
2022-12-06T23:34:07.232Z,68.62
2022-12-06T23:36:35.226Z,68.73
2022-12-06T23:39:03.173Z,68.75
2022-12-06T23:41:31.909Z,68.74
2022-12-06T23:43:59.409Z,68.59
2022-12-06T23:46:29.395Z,69.16
2022-12-06T23:48:56.954Z,68.70
2022-12-06T23:51:27.562Z,68.73
2022-12-06T23:53:59.012Z,68.79
2022-12-06T23:56:32.430Z,68.99
2022-12-06T23:59:00.293Z,69.03
